sensor_id;sensor_type;location;lat;lon;timestamp;P1;durP1;ratioP1;P2;durP2;ratioP2
12302;SDS011;6214;48.012;7.862;2024-01-15T00:02:20;17.73;;;11.82;;
12302;SDS011;6214;48.012;7.862;2024-01-15T00:04:47;17.02;;;11.05;;
12302;SDS011;6214;48.012;7.862;2024-01-15T00:07:14;16.15;;;10.68;;
12302;SDS011;6214;48.012;7.862;2024-01-15T00:09:40;15.50;;;10.32;;
12302;SDS011;6214;48.012;7.862;2024-01-15T00:12:07;15.60;;;10.50;;
12302;SDS011;6214;48.012;7.862;2024-01-15T00:14:34;15.07;;;9.60;;
12302;SDS011;6214;48.012;7.862;2024-01-15T00:17:01;16.65;;;11.10;;
12302;SDS011;6214;48.012;7.862;2024-01-15T00:19:28;18.35;;;12.32;;
12302;SDS011;6214;48.012;7.862;2024-01-15T00:21:58;17.88;;;12.38;;
12302;SDS011;6214;48.012;7.862;2024-01-15T00:24:25;15.85;;;10.68;;
12302;SDS011;6214;48.012;7.862;2024-01-15T00:26:52;16.00;;;10.77;;
12302;SDS011;6214;48.012;7.862;2024-01-15T00:29:19;16.15;;;10.48;;
12302;SDS011;6214;48.012;7.862;2024-01-15T00:31:46;17.02;;;11.57;;
12302;SDS011;6214;48.012;7.862;2024-01-15T00:34:13;16.88;;;11.40;;
12302;SDS011;6214;48.012;7.862;2024-01-15T00:36:40;16.08;;;11.23;;
12302;SDS011;6214;48.012;7.862;2024-01-15T00:39:07;15.53;;;10.43;;
12302;SDS011;6214;48.012;7.862;2024-01-15T00:41:34;18.70;;;12.47;;
12302;SDS011;6214;48.012;7.862;2024-01-15T00:44:01;16.95;;;11.73;;
12302;SDS011;6214;48.012;7.862;2024-01-15T00:46:29;15.75;;;10.55;;
12302;SDS011;6214;48.012;7.862;2024-01-15T00:48:55;16.80;;;10.95;;
12302;SDS011;6214;48.012;7.862;2024-01-15T00:51:22;18.20;;;12.30;;
12302;SDS011;6214;48.012;7.862;2024-01-15T00:53:49;18.35;;;12.15;;
12302;SDS011;6214;48.012;7.862;2024-01-15T00:56:16;17.00;;;11.10;;
12302;SDS011;6214;48.012;7.862;2024-01-15T00:58:42;18.70;;;12.82;;
12302;SDS011;6214;48.012;7.862;2024-01-15T01:01:09;18.70;;;12.30;;
12302;SDS011;6214;48.012;7.862;2024-01-15T01:03:36;18.05;;;12.30;;
12302;SDS011;6214;48.012;7.862;2024-01-15T01:06:03;17.08;;;11.60;;
12302;SDS011;6214;48.012;7.862;2024-01-15T01:08:30;15.20;;;10.02;;
12302;SDS011;6214;48.012;7.862;2024-01-15T01:10:57;17.33;;;11.45;;
12302;SDS011;6214;48.012;7.862;2024-01-15T01:13:24;16.02;;;10.60;;
12302;SDS011;6214;48.012;7.862;2024-01-15T01:15:51;17.17;;;10.70;;
12302;SDS011;6214;48.012;7.862;2024-01-15T01:18:17;16.48;;;10.73;;
12302;SDS011;6214;48.012;7.862;2024-01-15T01:20:44;15.88;;;10.77;;
12302;SDS011;6214;48.012;7.862;2024-01-15T01:23:11;17.67;;;11.27;;
12302;SDS011;6214;48.012;7.862;2024-01-15T01:25:38;15.13;;;10.40;;
12302;SDS011;6214;48.012;7.862;2024-01-15T01:28:05;14.80;;;9.65;;
12302;SDS011;6214;48.012;7.862;2024-01-15T01:30:32;14.23;;;9.55;;
12302;SDS011;6214;48.012;7.862;2024-01-15T01:32:59;14.90;;;10.00;;
12302;SDS011;6214;48.012;7.862;2024-01-15T01:35:25;15.27;;;9.57;;
12302;SDS011;6214;48.012;7.862;2024-01-15T01:37:52;14.80;;;8.97;;
12302;SDS011;6214;48.012;7.862;2024-01-15T01:40:19;14.40;;;9.10;;
12302;SDS011;6214;48.012;7.862;2024-01-15T01:42:46;13.60;;;8.48;;
12302;SDS011;6214;48.012;7.862;2024-01-15T01:45:14;12.70;;;8.23;;
12302;SDS011;6214;48.012;7.862;2024-01-15T01:47:41;15.57;;;9.63;;
12302;SDS011;6214;48.012;7.862;2024-01-15T01:50:08;13.38;;;8.85;;
12302;SDS011;6214;48.012;7.862;2024-01-15T01:52:35;13.07;;;8.15;;
12302;SDS011;6214;48.012;7.862;2024-01-15T01:55:02;10.93;;;6.68;;
12302;SDS011;6214;48.012;7.862;2024-01-15T01:57:30;16.90;;;11.10;;
12302;SDS011;6214;48.012;7.862;2024-01-15T02:00:01;17.58;;;12.60;;
12302;SDS011;6214;48.012;7.862;2024-01-15T02:02:30;16.70;;;11.30;;
12302;SDS011;6214;48.012;7.862;2024-01-15T02:04:58;15.60;;;10.07;;
12302;SDS011;6214;48.012;7.862;2024-01-15T02:07:25;19.25;;;12.38;;
12302;SDS011;6214;48.012;7.862;2024-01-15T02:09:52;21.23;;;14.60;;
12302;SDS011;6214;48.012;7.862;2024-01-15T02:12:19;21.92;;;15.02;;
12302;SDS011;6214;48.012;7.862;2024-01-15T02:14:46;22.10;;;14.73;;
12302;SDS011;6214;48.012;7.862;2024-01-15T02:17:12;20.70;;;14.75;;
12302;SDS011;6214;48.012;7.862;2024-01-15T02:19:39;20.85;;;14.55;;
12302;SDS011;6214;48.012;7.862;2024-01-15T02:22:07;21.40;;;14.60;;
12302;SDS011;6214;48.012;7.862;2024-01-15T02:24:34;24.07;;;16.50;;
12302;SDS011;6214;48.012;7.862;2024-01-15T02:27:00;23.73;;;16.67;;
12302;SDS011;6214;48.012;7.862;2024-01-15T02:29:27;19.95;;;13.55;;
12302;SDS011;6214;48.012;7.862;2024-01-15T02:31:54;22.63;;;16.13;;
12302;SDS011;6214;48.012;7.862;2024-01-15T02:34:21;20.98;;;14.88;;
12302;SDS011;6214;48.012;7.862;2024-01-15T02:36:48;19.30;;;13.52;;
12302;SDS011;6214;48.012;7.862;2024-01-15T02:39:15;18.58;;;12.93;;
12302;SDS011;6214;48.012;7.862;2024-01-15T02:41:41;19.25;;;13.05;;
12302;SDS011;6214;48.012;7.862;2024-01-15T02:44:08;19.17;;;13.63;;
12302;SDS011;6214;48.012;7.862;2024-01-15T02:46:35;21.67;;;15.27;;
12302;SDS011;6214;48.012;7.862;2024-01-15T02:49:02;16.33;;;11.02;;
12302;SDS011;6214;48.012;7.862;2024-01-15T02:51:28;13.93;;;9.13;;
12302;SDS011;6214;48.012;7.862;2024-01-15T02:53:55;14.93;;;10.10;;
12302;SDS011;6214;48.012;7.862;2024-01-15T02:56:22;14.45;;;9.40;;
12302;SDS011;6214;48.012;7.862;2024-01-15T02:58:49;15.63;;;9.93;;
12302;SDS011;6214;48.012;7.862;2024-01-15T03:01:18;12.82;;;7.95;;
12302;SDS011;6214;48.012;7.862;2024-01-15T03:03:45;13.50;;;9.00;;
12302;SDS011;6214;48.012;7.862;2024-01-15T03:06:12;19.58;;;13.80;;
12302;SDS011;6214;48.012;7.862;2024-01-15T03:08:39;18.02;;;12.70;;
12302;SDS011;6214;48.012;7.862;2024-01-15T03:11:06;22.17;;;15.65;;
12302;SDS011;6214;48.012;7.862;2024-01-15T03:13:35;19.48;;;13.98;;
12302;SDS011;6214;48.012;7.862;2024-01-15T03:16:03;16.20;;;10.98;;
12302;SDS011;6214;48.012;7.862;2024-01-15T03:18:31;16.00;;;10.52;;
12302;SDS011;6214;48.012;7.862;2024-01-15T03:20:58;14.13;;;9.90;;
12302;SDS011;6214;48.012;7.862;2024-01-15T03:23:27;16.02;;;11.20;;
12302;SDS011;6214;48.012;7.862;2024-01-15T03:25:54;16.45;;;10.80;;
12302;SDS011;6214;48.012;7.862;2024-01-15T03:28:21;13.50;;;9.13;;
12302;SDS011;6214;48.012;7.862;2024-01-15T03:30:47;16.67;;;10.90;;
12302;SDS011;6214;48.012;7.862;2024-01-15T03:33:14;13.10;;;8.90;;
12302;SDS011;6214;48.012;7.862;2024-01-15T03:35:41;14.07;;;8.65;;
12302;SDS011;6214;48.012;7.862;2024-01-15T03:38:08;17.17;;;11.80;;
12302;SDS011;6214;48.012;7.862;2024-01-15T03:40:35;15.05;;;9.38;;
12302;SDS011;6214;48.012;7.862;2024-01-15T03:43:02;20.10;;;14.57;;
12302;SDS011;6214;48.012;7.862;2024-01-15T03:45:28;19.40;;;12.95;;
12302;SDS011;6214;48.012;7.862;2024-01-15T03:47:55;15.10;;;9.55;;
12302;SDS011;6214;48.012;7.862;2024-01-15T03:50:22;15.32;;;10.45;;
12302;SDS011;6214;48.012;7.862;2024-01-15T03:52:49;23.80;;;17.17;;
12302;SDS011;6214;48.012;7.862;2024-01-15T03:55:15;23.77;;;17.20;;
12302;SDS011;6214;48.012;7.862;2024-01-15T03:57:42;22.02;;;15.85;;
12302;SDS011;6214;48.012;7.862;2024-01-15T04:00:09;15.85;;;10.95;;
12302;SDS011;6214;48.012;7.862;2024-01-15T04:02:36;19.38;;;13.43;;
12302;SDS011;6214;48.012;7.862;2024-01-15T04:05:03;16.17;;;11.05;;
12302;SDS011;6214;48.012;7.862;2024-01-15T04:07:30;15.50;;;10.07;;
12302;SDS011;6214;48.012;7.862;2024-01-15T04:09:57;14.25;;;10.13;;
12302;SDS011;6214;48.012;7.862;2024-01-15T04:12:23;20.47;;;13.40;;
12302;SDS011;6214;48.012;7.862;2024-01-15T04:14:50;21.03;;;15.40;;
12302;SDS011;6214;48.012;7.862;2024-01-15T04:17:17;17.30;;;12.07;;
12302;SDS011;6214;48.012;7.862;2024-01-15T04:19:44;21.50;;;15.40;;
12302;SDS011;6214;48.012;7.862;2024-01-15T04:22:11;22.63;;;15.98;;
12302;SDS011;6214;48.012;7.862;2024-01-15T04:24:38;20.58;;;14.82;;
12302;SDS011;6214;48.012;7.862;2024-01-15T04:27:05;23.75;;;16.38;;
12302;SDS011;6214;48.012;7.862;2024-01-15T04:29:33;21.20;;;15.20;;
12302;SDS011;6214;48.012;7.862;2024-01-15T04:32:03;23.80;;;17.07;;
12302;SDS011;6214;48.012;7.862;2024-01-15T04:34:29;24.02;;;17.00;;
12302;SDS011;6214;48.012;7.862;2024-01-15T04:36:56;22.30;;;15.80;;
12302;SDS011;6214;48.012;7.862;2024-01-15T04:39:23;22.77;;;17.02;;
12302;SDS011;6214;48.012;7.862;2024-01-15T04:41:50;21.70;;;15.68;;
12302;SDS011;6214;48.012;7.862;2024-01-15T04:44:17;24.05;;;16.70;;
12302;SDS011;6214;48.012;7.862;2024-01-15T04:46:44;21.83;;;15.70;;
12302;SDS011;6214;48.012;7.862;2024-01-15T04:49:11;20.40;;;14.23;;
12302;SDS011;6214;48.012;7.862;2024-01-15T04:51:37;21.23;;;14.30;;
12302;SDS011;6214;48.012;7.862;2024-01-15T04:54:04;23.40;;;16.07;;
12302;SDS011;6214;48.012;7.862;2024-01-15T04:56:31;17.97;;;11.90;;
12302;SDS011;6214;48.012;7.862;2024-01-15T04:58:58;22.93;;;16.30;;
12302;SDS011;6214;48.012;7.862;2024-01-15T05:01:24;18.77;;;13.13;;
12302;SDS011;6214;48.012;7.862;2024-01-15T05:03:51;18.00;;;12.20;;
12302;SDS011;6214;48.012;7.862;2024-01-15T05:06:19;14.32;;;9.65;;
12302;SDS011;6214;48.012;7.862;2024-01-15T05:08:46;19.58;;;13.18;;
12302;SDS011;6214;48.012;7.862;2024-01-15T05:11:13;16.83;;;11.60;;
12302;SDS011;6214;48.012;7.862;2024-01-15T05:13:40;14.52;;;9.93;;
12302;SDS011;6214;48.012;7.862;2024-01-15T05:16:07;13.10;;;8.23;;
12302;SDS011;6214;48.012;7.862;2024-01-15T05:18:33;15.00;;;9.95;;
12302;SDS011;6214;48.012;7.862;2024-01-15T05:21:00;16.30;;;9.93;;
12302;SDS011;6214;48.012;7.862;2024-01-15T05:23:28;17.23;;;11.68;;
12302;SDS011;6214;48.012;7.862;2024-01-15T05:25:54;16.27;;;11.00;;
12302;SDS011;6214;48.012;7.862;2024-01-15T05:28:21;17.92;;;12.07;;
12302;SDS011;6214;48.012;7.862;2024-01-15T05:30:48;14.90;;;9.60;;
12302;SDS011;6214;48.012;7.862;2024-01-15T05:33:16;13.07;;;8.40;;
12302;SDS011;6214;48.012;7.862;2024-01-15T05:35:43;13.52;;;8.70;;
12302;SDS011;6214;48.012;7.862;2024-01-15T05:38:10;21.07;;;14.47;;
12302;SDS011;6214;48.012;7.862;2024-01-15T05:40:37;18.50;;;12.70;;
12302;SDS011;6214;48.012;7.862;2024-01-15T05:43:03;18.58;;;13.10;;
12302;SDS011;6214;48.012;7.862;2024-01-15T05:45:30;16.45;;;11.27;;
12302;SDS011;6214;48.012;7.862;2024-01-15T05:47:57;18.83;;;12.80;;
12302;SDS011;6214;48.012;7.862;2024-01-15T05:50:24;18.48;;;12.75;;
12302;SDS011;6214;48.012;7.862;2024-01-15T05:52:51;18.52;;;12.43;;
12302;SDS011;6214;48.012;7.862;2024-01-15T05:55:18;18.35;;;12.07;;
12302;SDS011;6214;48.012;7.862;2024-01-15T05:57:45;17.08;;;11.80;;
12302;SDS011;6214;48.012;7.862;2024-01-15T06:00:12;18.92;;;12.52;;
12302;SDS011;6214;48.012;7.862;2024-01-15T06:02:39;15.90;;;10.48;;
12302;SDS011;6214;48.012;7.862;2024-01-15T06:05:06;18.83;;;12.30;;
12302;SDS011;6214;48.012;7.862;2024-01-15T06:07:34;16.85;;;11.32;;
12302;SDS011;6214;48.012;7.862;2024-01-15T06:10:02;17.67;;;12.05;;
12302;SDS011;6214;48.012;7.862;2024-01-15T06:12:30;16.17;;;11.20;;
12302;SDS011;6214;48.012;7.862;2024-01-15T06:14:58;16.17;;;10.30;;
12302;SDS011;6214;48.012;7.862;2024-01-15T06:17:25;16.55;;;11.27;;
12302;SDS011;6214;48.012;7.862;2024-01-15T06:19:52;16.45;;;10.45;;
12302;SDS011;6214;48.012;7.862;2024-01-15T06:22:19;14.77;;;9.63;;
12302;SDS011;6214;48.012;7.862;2024-01-15T06:24:46;13.25;;;8.43;;
12302;SDS011;6214;48.012;7.862;2024-01-15T06:27:12;14.07;;;9.05;;
12302;SDS011;6214;48.012;7.862;2024-01-15T06:29:44;16.20;;;9.80;;
12302;SDS011;6214;48.012;7.862;2024-01-15T06:32:16;13.40;;;8.50;;
12302;SDS011;6214;48.012;7.862;2024-01-15T06:34:43;12.85;;;8.25;;
12302;SDS011;6214;48.012;7.862;2024-01-15T06:37:09;13.80;;;8.50;;
12302;SDS011;6214;48.012;7.862;2024-01-15T06:39:36;14.85;;;9.68;;
12302;SDS011;6214;48.012;7.862;2024-01-15T06:42:03;14.27;;;9.38;;
12302;SDS011;6214;48.012;7.862;2024-01-15T06:44:30;15.13;;;9.55;;
12302;SDS011;6214;48.012;7.862;2024-01-15T06:46:57;17.30;;;11.90;;
12302;SDS011;6214;48.012;7.862;2024-01-15T06:49:28;13.90;;;9.10;;
12302;SDS011;6214;48.012;7.862;2024-01-15T06:51:56;15.93;;;10.45;;
12302;SDS011;6214;48.012;7.862;2024-01-15T06:54:23;17.95;;;11.80;;
12302;SDS011;6214;48.012;7.862;2024-01-15T06:56:50;15.70;;;10.52;;
12302;SDS011;6214;48.012;7.862;2024-01-15T06:59:17;16.02;;;10.23;;
12302;SDS011;6214;48.012;7.862;2024-01-15T07:01:45;14.98;;;10.07;;
12302;SDS011;6214;48.012;7.862;2024-01-15T07:04:12;14.98;;;10.48;;
12302;SDS011;6214;48.012;7.862;2024-01-15T07:06:39;16.20;;;10.52;;
12302;SDS011;6214;48.012;7.862;2024-01-15T07:09:06;15.70;;;9.80;;
12302;SDS011;6214;48.012;7.862;2024-01-15T07:11:34;13.90;;;9.25;;
12302;SDS011;6214;48.012;7.862;2024-01-15T07:14:01;12.50;;;7.60;;
12302;SDS011;6214;48.012;7.862;2024-01-15T07:16:27;11.70;;;7.20;;
12302;SDS011;6214;48.012;7.862;2024-01-15T07:19:03;13.00;;;8.00;;
12302;SDS011;6214;48.012;7.862;2024-01-15T07:21:30;12.32;;;8.00;;
12302;SDS011;6214;48.012;7.862;2024-01-15T07:23:57;13.75;;;8.07;;
12302;SDS011;6214;48.012;7.862;2024-01-15T07:26:24;13.13;;;7.90;;
12302;SDS011;6214;48.012;7.862;2024-01-15T07:28:51;12.47;;;7.93;;
12302;SDS011;6214;48.012;7.862;2024-01-15T07:31:18;13.87;;;9.17;;
12302;SDS011;6214;48.012;7.862;2024-01-15T07:33:45;13.18;;;7.90;;
12302;SDS011;6214;48.012;7.862;2024-01-15T07:36:13;11.77;;;7.00;;
12302;SDS011;6214;48.012;7.862;2024-01-15T07:38:40;13.70;;;8.15;;
12302;SDS011;6214;48.012;7.862;2024-01-15T07:41:06;10.75;;;6.35;;
12302;SDS011;6214;48.012;7.862;2024-01-15T07:43:34;10.98;;;7.00;;
12302;SDS011;6214;48.012;7.862;2024-01-15T07:46:00;12.45;;;7.25;;
12302;SDS011;6214;48.012;7.862;2024-01-15T07:48:28;9.98;;;6.00;;
12302;SDS011;6214;48.012;7.862;2024-01-15T07:50:55;8.80;;;5.03;;
12302;SDS011;6214;48.012;7.862;2024-01-15T07:53:22;10.48;;;6.00;;
12302;SDS011;6214;48.012;7.862;2024-01-15T07:55:49;8.82;;;4.63;;
12302;SDS011;6214;48.012;7.862;2024-01-15T07:58:15;10.02;;;5.40;;
12302;SDS011;6214;48.012;7.862;2024-01-15T08:00:43;8.90;;;4.93;;
12302;SDS011;6214;48.012;7.862;2024-01-15T08:03:11;10.35;;;5.60;;
12302;SDS011;6214;48.012;7.862;2024-01-15T08:05:38;8.98;;;5.05;;
12302;SDS011;6214;48.012;7.862;2024-01-15T08:08:05;8.85;;;4.70;;
12302;SDS011;6214;48.012;7.862;2024-01-15T08:10:32;9.38;;;4.60;;
12302;SDS011;6214;48.012;7.862;2024-01-15T08:12:59;8.20;;;4.30;;
12302;SDS011;6214;48.012;7.862;2024-01-15T08:15:25;8.60;;;4.07;;
12302;SDS011;6214;48.012;7.862;2024-01-15T08:17:56;7.70;;;3.60;;
12302;SDS011;6214;48.012;7.862;2024-01-15T08:20:24;8.75;;;3.90;;
12302;SDS011;6214;48.012;7.862;2024-01-15T08:22:51;7.22;;;3.60;;
12302;SDS011;6214;48.012;7.862;2024-01-15T08:25:18;5.73;;;2.50;;
12302;SDS011;6214;48.012;7.862;2024-01-15T08:27:44;7.07;;;3.13;;
12302;SDS011;6214;48.012;7.862;2024-01-15T08:30:11;9.40;;;5.10;;
12302;SDS011;6214;48.012;7.862;2024-01-15T08:32:39;8.30;;;4.35;;
12302;SDS011;6214;48.012;7.862;2024-01-15T08:35:08;8.20;;;4.63;;
12302;SDS011;6214;48.012;7.862;2024-01-15T08:37:36;8.93;;;4.20;;
12302;SDS011;6214;48.012;7.862;2024-01-15T08:40:04;8.27;;;3.80;;
12302;SDS011;6214;48.012;7.862;2024-01-15T08:42:31;6.97;;;3.17;;
12302;SDS011;6214;48.012;7.862;2024-01-15T08:44:58;6.40;;;2.63;;
12302;SDS011;6214;48.012;7.862;2024-01-15T08:47:24;7.40;;;2.90;;
12302;SDS011;6214;48.012;7.862;2024-01-15T08:49:52;7.33;;;3.27;;
12302;SDS011;6214;48.012;7.862;2024-01-15T08:52:19;6.90;;;3.30;;
12302;SDS011;6214;48.012;7.862;2024-01-15T08:54:46;6.70;;;3.28;;
12302;SDS011;6214;48.012;7.862;2024-01-15T08:57:13;6.43;;;3.00;;
12302;SDS011;6214;48.012;7.862;2024-01-15T08:59:40;7.00;;;3.40;;
12302;SDS011;6214;48.012;7.862;2024-01-15T09:02:07;6.55;;;2.80;;
12302;SDS011;6214;48.012;7.862;2024-01-15T09:04:34;5.90;;;2.45;;
12302;SDS011;6214;48.012;7.862;2024-01-15T09:07:01;6.78;;;3.10;;
12302;SDS011;6214;48.012;7.862;2024-01-15T09:09:28;7.20;;;3.47;;
12302;SDS011;6214;48.012;7.862;2024-01-15T09:11:55;8.07;;;4.10;;
12302;SDS011;6214;48.012;7.862;2024-01-15T09:14:22;8.40;;;4.40;;
12302;SDS011;6214;48.012;7.862;2024-01-15T09:17:03;7.10;;;3.30;;
12302;SDS011;6214;48.012;7.862;2024-01-15T09:19:30;7.05;;;3.20;;
12302;SDS011;6214;48.012;7.862;2024-01-15T09:21:57;7.57;;;4.00;;
12302;SDS011;6214;48.012;7.862;2024-01-15T09:24:24;7.55;;;3.80;;
12302;SDS011;6214;48.012;7.862;2024-01-15T09:26:54;7.15;;;3.50;;
12302;SDS011;6214;48.012;7.862;2024-01-15T09:29:21;7.33;;;3.43;;
12302;SDS011;6214;48.012;7.862;2024-01-15T09:31:50;8.10;;;3.90;;
12302;SDS011;6214;48.012;7.862;2024-01-15T09:34:17;7.20;;;3.35;;
12302;SDS011;6214;48.012;7.862;2024-01-15T09:36:44;7.22;;;3.00;;
12302;SDS011;6214;48.012;7.862;2024-01-15T09:39:11;7.70;;;3.70;;
12302;SDS011;6214;48.012;7.862;2024-01-15T09:41:38;8.30;;;3.60;;
12302;SDS011;6214;48.012;7.862;2024-01-15T09:44:06;8.02;;;4.10;;
12302;SDS011;6214;48.012;7.862;2024-01-15T09:46:36;8.25;;;4.50;;
12302;SDS011;6214;48.012;7.862;2024-01-15T09:49:03;9.20;;;5.40;;
12302;SDS011;6214;48.012;7.862;2024-01-15T09:51:31;9.05;;;5.00;;
12302;SDS011;6214;48.012;7.862;2024-01-15T09:53:59;8.85;;;5.10;;
12302;SDS011;6214;48.012;7.862;2024-01-15T09:56:26;9.07;;;5.38;;
12302;SDS011;6214;48.012;7.862;2024-01-15T09:58:53;8.90;;;5.70;;
12302;SDS011;6214;48.012;7.862;2024-01-15T10:01:20;10.02;;;6.30;;
12302;SDS011;6214;48.012;7.862;2024-01-15T10:03:47;10.15;;;6.20;;
12302;SDS011;6214;48.012;7.862;2024-01-15T10:06:15;9.90;;;6.10;;
12302;SDS011;6214;48.012;7.862;2024-01-15T10:08:51;10.70;;;6.10;;
12302;SDS011;6214;48.012;7.862;2024-01-15T10:11:18;9.83;;;6.00;;
12302;SDS011;6214;48.012;7.862;2024-01-15T10:13:48;10.80;;;6.60;;
12302;SDS011;6214;48.012;7.862;2024-01-15T10:16:23;10.40;;;7.00;;
12302;SDS011;6214;48.012;7.862;2024-01-15T10:18:49;10.25;;;6.82;;
12302;SDS011;6214;48.012;7.862;2024-01-15T10:21:17;10.35;;;6.50;;
12302;SDS011;6214;48.012;7.862;2024-01-15T10:23:44;11.10;;;7.03;;
12302;SDS011;6214;48.012;7.862;2024-01-15T10:26:11;11.52;;;6.90;;
12302;SDS011;6214;48.012;7.862;2024-01-15T10:28:44;12.55;;;7.93;;
12302;SDS011;6214;48.012;7.862;2024-01-15T10:31:11;11.88;;;7.93;;
12302;SDS011;6214;48.012;7.862;2024-01-15T10:33:38;11.73;;;6.88;;
12302;SDS011;6214;48.012;7.862;2024-01-15T10:36:05;12.85;;;8.50;;
12302;SDS011;6214;48.012;7.862;2024-01-15T10:38:37;13.23;;;8.77;;
12302;SDS011;6214;48.012;7.862;2024-01-15T10:41:04;13.82;;;9.82;;
12302;SDS011;6214;48.012;7.862;2024-01-15T10:43:31;12.38;;;8.80;;
12302;SDS011;6214;48.012;7.862;2024-01-15T10:45:57;14.70;;;10.65;;
12302;SDS011;6214;48.012;7.862;2024-01-15T10:48:24;15.10;;;10.30;;
12302;SDS011;6214;48.012;7.862;2024-01-15T10:50:54;13.20;;;9.20;;
12302;SDS011;6214;48.012;7.862;2024-01-15T10:53:22;13.90;;;9.80;;
12302;SDS011;6214;48.012;7.862;2024-01-15T10:55:51;14.80;;;9.90;;
12302;SDS011;6214;48.012;7.862;2024-01-15T10:58:18;15.82;;;10.30;;
12302;SDS011;6214;48.012;7.862;2024-01-15T11:00:46;14.93;;;10.70;;
12302;SDS011;6214;48.012;7.862;2024-01-15T11:03:14;12.88;;;9.40;;
12302;SDS011;6214;48.012;7.862;2024-01-15T11:05:43;13.30;;;9.20;;
12302;SDS011;6214;48.012;7.862;2024-01-15T11:08:10;14.00;;;9.35;;
12302;SDS011;6214;48.012;7.862;2024-01-15T11:10:41;12.90;;;8.52;;
12302;SDS011;6214;48.012;7.862;2024-01-15T11:13:19;13.60;;;9.52;;
12302;SDS011;6214;48.012;7.862;2024-01-15T11:18:42;16.52;;;11.05;;
12302;SDS011;6214;48.012;7.862;2024-01-15T11:21:25;13.05;;;9.30;;
12302;SDS011;6214;48.012;7.862;2024-01-15T11:26:31;14.03;;;9.17;;
12302;SDS011;6214;48.012;7.862;2024-01-15T11:28:59;13.02;;;8.65;;
12302;SDS011;6214;48.012;7.862;2024-01-15T11:31:27;12.80;;;8.73;;
12302;SDS011;6214;48.012;7.862;2024-01-15T11:34:18;12.90;;;8.95;;
12302;SDS011;6214;48.012;7.862;2024-01-15T11:41:54;14.70;;;10.30;;
12302;SDS011;6214;48.012;7.862;2024-01-15T11:44:24;13.00;;;9.30;;
12302;SDS011;6214;48.012;7.862;2024-01-15T11:52:15;13.40;;;9.45;;
12302;SDS011;6214;48.012;7.862;2024-01-15T11:54:47;13.60;;;9.02;;
12302;SDS011;6214;48.012;7.862;2024-01-15T12:00:12;12.80;;;8.65;;
12302;SDS011;6214;48.012;7.862;2024-01-15T12:02:40;13.70;;;9.82;;
12302;SDS011;6214;48.012;7.862;2024-01-15T12:05:08;13.00;;;9.25;;
12302;SDS011;6214;48.012;7.862;2024-01-15T12:07:36;14.20;;;9.80;;
12302;SDS011;6214;48.012;7.862;2024-01-15T12:10:03;13.82;;;9.52;;
12302;SDS011;6214;48.012;7.862;2024-01-15T12:15:20;13.00;;;9.20;;
12302;SDS011;6214;48.012;7.862;2024-01-15T12:17:46;13.13;;;8.60;;
12302;SDS011;6214;48.012;7.862;2024-01-15T12:20:14;12.63;;;8.93;;
12302;SDS011;6214;48.012;7.862;2024-01-15T12:22:42;15.80;;;10.77;;
12302;SDS011;6214;48.012;7.862;2024-01-15T12:25:25;13.77;;;9.43;;
12302;SDS011;6214;48.012;7.862;2024-01-15T12:27:53;13.60;;;9.45;;
12302;SDS011;6214;48.012;7.862;2024-01-15T12:30:20;13.00;;;9.25;;
12302;SDS011;6214;48.012;7.862;2024-01-15T12:32:47;12.73;;;9.40;;
12302;SDS011;6214;48.012;7.862;2024-01-15T12:35:15;13.67;;;9.40;;
12302;SDS011;6214;48.012;7.862;2024-01-15T12:37:42;11.52;;;7.63;;
12302;SDS011;6214;48.012;7.862;2024-01-15T12:40:10;11.60;;;7.65;;
12302;SDS011;6214;48.012;7.862;2024-01-15T12:42:37;12.35;;;8.32;;
12302;SDS011;6214;48.012;7.862;2024-01-15T12:45:06;11.55;;;7.80;;
12302;SDS011;6214;48.012;7.862;2024-01-15T12:47:34;10.95;;;7.65;;
12302;SDS011;6214;48.012;7.862;2024-01-15T12:50:05;10.27;;;6.80;;
12302;SDS011;6214;48.012;7.862;2024-01-15T12:52:44;13.40;;;8.45;;
12302;SDS011;6214;48.012;7.862;2024-01-15T12:55:11;12.05;;;7.72;;
12302;SDS011;6214;48.012;7.862;2024-01-15T12:57:38;12.60;;;8.52;;
12302;SDS011;6214;48.012;7.862;2024-01-15T13:00:05;12.43;;;7.80;;
12302;SDS011;6214;48.012;7.862;2024-01-15T13:02:40;11.20;;;7.20;;
12302;SDS011;6214;48.012;7.862;2024-01-15T13:05:08;11.48;;;7.28;;
12302;SDS011;6214;48.012;7.862;2024-01-15T13:07:41;10.50;;;7.17;;
12302;SDS011;6214;48.012;7.862;2024-01-15T13:10:08;11.70;;;7.75;;
12302;SDS011;6214;48.012;7.862;2024-01-15T13:12:36;10.97;;;7.50;;
12302;SDS011;6214;48.012;7.862;2024-01-15T13:15:04;9.38;;;6.00;;
12302;SDS011;6214;48.012;7.862;2024-01-15T13:17:31;11.27;;;7.20;;
12302;SDS011;6214;48.012;7.862;2024-01-15T13:19:58;10.98;;;6.70;;
12302;SDS011;6214;48.012;7.862;2024-01-15T13:22:26;12.47;;;8.27;;
12302;SDS011;6214;48.012;7.862;2024-01-15T13:24:58;11.57;;;7.82;;
12302;SDS011;6214;48.012;7.862;2024-01-15T13:27:25;12.82;;;8.80;;
12302;SDS011;6214;48.012;7.862;2024-01-15T13:29:52;12.65;;;8.50;;
12302;SDS011;6214;48.012;7.862;2024-01-15T13:32:22;12.63;;;9.05;;
12302;SDS011;6214;48.012;7.862;2024-01-15T13:34:52;12.52;;;8.20;;
12302;SDS011;6214;48.012;7.862;2024-01-15T13:37:20;14.25;;;9.40;;
12302;SDS011;6214;48.012;7.862;2024-01-15T13:39:46;12.93;;;9.20;;
12302;SDS011;6214;48.012;7.862;2024-01-15T13:42:13;12.52;;;8.40;;
12302;SDS011;6214;48.012;7.862;2024-01-15T13:44:41;12.27;;;8.60;;
12302;SDS011;6214;48.012;7.862;2024-01-15T13:47:08;15.50;;;10.80;;
12302;SDS011;6214;48.012;7.862;2024-01-15T13:49:35;13.15;;;9.23;;
12302;SDS011;6214;48.012;7.862;2024-01-15T13:52:03;13.38;;;9.93;;
12302;SDS011;6214;48.012;7.862;2024-01-15T13:54:30;11.68;;;7.70;;
12302;SDS011;6214;48.012;7.862;2024-01-15T13:57:14;12.90;;;9.00;;
12302;SDS011;6214;48.012;7.862;2024-01-15T13:59:41;12.13;;;8.70;;
12302;SDS011;6214;48.012;7.862;2024-01-15T14:02:08;13.90;;;9.65;;
12302;SDS011;6214;48.012;7.862;2024-01-15T14:04:36;14.07;;;9.07;;
12302;SDS011;6214;48.012;7.862;2024-01-15T14:07:07;12.85;;;8.05;;
12302;SDS011;6214;48.012;7.862;2024-01-15T14:09:34;12.52;;;8.40;;
12302;SDS011;6214;48.012;7.862;2024-01-15T14:12:01;13.75;;;9.73;;
12302;SDS011;6214;48.012;7.862;2024-01-15T14:14:28;13.10;;;9.20;;
12302;SDS011;6214;48.012;7.862;2024-01-15T14:16:55;12.60;;;8.80;;
12302;SDS011;6214;48.012;7.862;2024-01-15T14:19:23;13.15;;;8.90;;
12302;SDS011;6214;48.012;7.862;2024-01-15T14:21:50;12.27;;;8.45;;
12302;SDS011;6214;48.012;7.862;2024-01-15T14:24:16;15.07;;;10.07;;
12302;SDS011;6214;48.012;7.862;2024-01-15T14:26:44;12.90;;;8.70;;
12302;SDS011;6214;48.012;7.862;2024-01-15T14:29:12;11.43;;;7.63;;
12302;SDS011;6214;48.012;7.862;2024-01-15T14:31:38;12.25;;;8.13;;
12302;SDS011;6214;48.012;7.862;2024-01-15T14:34:06;12.15;;;7.68;;
12302;SDS011;6214;48.012;7.862;2024-01-15T14:36:34;12.30;;;8.60;;
12302;SDS011;6214;48.012;7.862;2024-01-15T14:39:01;12.70;;;8.90;;
12302;SDS011;6214;48.012;7.862;2024-01-15T14:41:28;11.48;;;7.28;;
12302;SDS011;6214;48.012;7.862;2024-01-15T14:43:55;12.65;;;8.18;;
12302;SDS011;6214;48.012;7.862;2024-01-15T14:46:23;11.57;;;7.67;;
12302;SDS011;6214;48.012;7.862;2024-01-15T14:48:50;10.52;;;6.95;;
12302;SDS011;6214;48.012;7.862;2024-01-15T14:51:17;10.48;;;7.10;;
12302;SDS011;6214;48.012;7.862;2024-01-15T14:53:43;12.68;;;7.85;;
12302;SDS011;6214;48.012;7.862;2024-01-15T14:56:11;11.53;;;7.27;;
12302;SDS011;6214;48.012;7.862;2024-01-15T14:58:41;12.27;;;8.88;;
12302;SDS011;6214;48.012;7.862;2024-01-15T15:01:09;11.65;;;7.60;;
12302;SDS011;6214;48.012;7.862;2024-01-15T15:03:36;12.63;;;8.52;;
12302;SDS011;6214;48.012;7.862;2024-01-15T15:06:03;14.10;;;10.10;;
12302;SDS011;6214;48.012;7.862;2024-01-15T15:08:30;14.30;;;9.13;;
12302;SDS011;6214;48.012;7.862;2024-01-15T15:10:57;12.70;;;8.77;;